Time;durP1;ratioP1;P1;durP2;ratioP2;P2;SDS_P1;SDS_P2;PMS_P1;PMS_P2;Temp;Humidity;BMP_temperature;BMP_pressure;BME280_temperature;BME280_humidity;BME280_pressure;Samples;Min_cycle;Max_cycle;Signal;HPM_P1;HPM_P2
2023/03/10 00:01:53;;;;;;;6.57;4.20;;;-2.40;97.40;;;;;;5023513;28;20026;-86
2023/03/10 00:04:19;;;;;;;7.40;4.95;;;-2.40;96.90;;;;;;5021697;28;20018;-87
2023/03/10 00:06:47;;;;;;;6.93;4.60;;;-2.40;96.80;;;;;;5019336;28;20049;-88
2023/03/10 00:09:13;;;;;;;6.03;4.80;;;-2.40;96.70;;;;;;5020171;28;20022;-86
2023/03/10 00:11:38;;;;;;;7.28;4.07;;;-2.40;96.50;;;;;;5021911;28;20105;-86
2023/03/10 00:14:04;;;;;;;7.20;4.45;;;-2.40;96.50;;;;;;5024238;28;20040;-86
2023/03/10 00:16:30;;;;;;;8.48;4.90;;;-2.40;96.60;;;;;;5027693;28;20030;-86
2023/03/10 00:18:57;;;;;;;7.18;5.10;;;-2.40;96.40;;;;;;5030704;28;20045;-84
2023/03/10 00:21:26;;;;;;;6.68;3.90;;;-2.40;96.40;;;;;;5019710;28;20056;-88
2023/03/10 00:23:52;;;;;;;7.22;4.97;;;-2.50;96.20;;;;;;5031110;28;20028;-85
2023/03/10 00:26:20;;;;;;;5.20;4.20;;;-2.50;96.30;;;;;;5036256;28;20028;-86
2023/03/10 00:28:46;;;;;;;5.07;3.88;;;-2.50;96.00;;;;;;5027731;28;20071;-85
2023/03/10 00:31:18;;;;;;;7.10;4.35;;;-2.50;95.90;;;;;;5020322;28;20018;-86
2023/03/10 00:33:44;;;;;;;7.63;3.97;;;-2.50;96.10;;;;;;5018626;28;20034;-88
2023/03/10 00:36:11;;;;;;;7.68;4.72;;;-2.50;96.40;;;;;;5022060;28;20026;-84
2023/03/10 00:38:38;;;;;;;5.88;3.85;;;-2.50;95.90;;;;;;5014041;28;20026;-85
2023/03/10 00:41:07;;;;;;;5.00;4.00;;;-2.50;95.60;;;;;;5030217;28;20077;-83
2023/03/10 00:43:34;;;;;;;7.25;4.55;;;-2.50;95.40;;;;;;5017741;28;20543;-84
2023/03/10 00:46:00;;;;;;;4.95;3.53;;;-2.60;95.30;;;;;;5035273;28;20025;-84
2023/03/10 00:48:26;;;;;;;6.30;3.88;;;-2.60;95.30;;;;;;5036105;28;20026;-84
2023/03/10 00:50:52;;;;;;;5.40;3.28;;;-2.60;95.30;;;;;;5022835;28;20085;-83
2023/03/10 00:53:18;;;;;;;5.50;3.60;;;-2.60;95.40;;;;;;5014569;28;20022;-84
2023/03/10 00:55:44;;;;;;;7.45;3.40;;;-2.60;95.40;;;;;;5015600;28;20137;-84
2023/03/10 00:58:10;;;;;;;5.40;3.50;;;-2.60;95.50;;;;;;5015309;28;20065;-85
2023/03/10 01:00:36;;;;;;;6.22;3.83;;;-2.60;95.30;;;;;;5020806;28;20061;-88
2023/03/10 01:03:02;;;;;;;4.93;3.53;;;-2.60;95.30;;;;;;5032352;28;20064;-86
2023/03/10 01:05:27;;;;;;;6.38;3.28;;;-2.70;95.10;;;;;;5029930;28;20029;-86
2023/03/10 01:07:54;;;;;;;6.15;4.00;;;-2.70;95.00;;;;;;5022770;28;20117;-88
2023/03/10 01:10:20;;;;;;;4.85;3.45;;;-2.70;95.30;;;;;;5016768;28;20013;-85
2023/03/10 01:12:46;;;;;;;6.22;3.42;;;-2.70;95.20;;;;;;5018092;28;20125;-87
2023/03/10 01:15:12;;;;;;;7.15;3.92;;;-2.70;95.20;;;;;;5019883;28;20042;-85
2023/03/10 01:17:38;;;;;;;6.00;3.50;;;-2.70;95.20;;;;;;5021838;28;20064;-86
2023/03/10 01:20:08;;;;;;;4.95;3.28;;;-2.70;95.20;;;;;;5017157;28;20037;-81
2023/03/10 01:22:35;;;;;;;5.57;3.33;;;-2.70;95.20;;;;;;5015637;28;20022;-83
2023/03/10 01:25:01;;;;;;;5.65;3.10;;;-2.80;95.20;;;;;;5016807;28;20096;-85
2023/03/10 01:27:26;;;;;;;3.85;2.50;;;-2.80;95.10;;;;;;5018982;28;20030;-85
2023/03/10 01:29:52;;;;;;;4.03;3.17;;;-2.80;95.50;;;;;;5018083;28;20106;-85
2023/03/10 01:32:18;;;;;;;5.22;3.38;;;-2.80;95.60;;;;;;5016777;28;20029;-84
2023/03/10 01:34:44;;;;;;;4.43;2.67;;;-2.90;95.60;;;;;;5026577;28;20053;-84
2023/03/10 01:37:10;;;;;;;6.13;3.60;;;-2.90;95.50;;;;;;5022380;28;20025;-85
2023/03/10 01:39:36;;;;;;;4.93;3.55;;;-2.90;95.50;;;;;;5033018;28;20038;-84
2023/03/10 01:42:02;;;;;;;6.30;3.35;;;-2.80;95.50;;;;;;5015714;28;20045;-84
2023/03/10 01:44:28;;;;;;;4.95;2.90;;;-2.90;95.50;;;;;;5033673;28;20034;-84
2023/03/10 01:46:55;;;;;;;4.85;2.83;;;-2.90;95.40;;;;;;5018384;28;20230;-84
2023/03/10 01:49:20;;;;;;;6.55;3.90;;;-2.90;95.30;;;;;;5014960;28;20030;-85
2023/03/10 01:52:01;;;;;;;4.75;3.75;;;-3.00;94.80;;;;;;5015118;28;20025;-85
2023/03/10 01:54:50;;;;;;;4.35;2.63;;;-3.00;95.00;;;;;;5013476;28;20022;-83
2023/03/10 01:57:20;;;;;;;5.05;3.58;;;-3.00;94.60;;;;;;4994447;28;20030;-82
2023/03/10 01:59:47;;;;;;;4.90;3.00;;;-3.00;94.50;;;;;;5017669;28;20076;-83
2023/03/10 02:02:13;;;;;;;5.13;3.28;;;-3.10;94.50;;;;;;5019960;28;20018;-84
2023/03/10 02:04:47;;;;;;;3.65;2.60;;;-3.20;94.90;;;;;;5020121;28;20176;-84
2023/03/10 02:07:15;;;;;;;5.28;4.03;;;-3.20;95.20;;;;;;5023256;28;20010;-85
2023/03/10 02:09:47;;;;;;;3.95;3.05;;;-3.10;95.30;;;;;;5026854;28;20053;-85
2023/03/10 02:12:14;;;;;;;4.60;3.38;;;-3.10;95.30;;;;;;5029570;28;20045;-84
2023/03/10 02:14:43;;;;;;;5.30;3.67;;;-3.10;95.30;;;;;;5029087;28;20049;-84
2023/03/10 02:17:13;;;;;;;6.05;3.85;;;-3.10;95.20;;;;;;5044682;28;20045;-85
2023/03/10 02:19:59;;;;;;;3.67;2.75;;;-3.10;95.30;;;;;;5032475;28;20038;-84
2023/03/10 02:22:25;;;;;;;3.97;2.85;;;-3.10;95.30;;;;;;5026674;28;20021;-85
2023/03/10 02:25:18;;;;;;;4.47;3.22;;;-3.10;94.60;;;;;;5031664;28;20034;-84
2023/03/10 02:27:44;;;;;;;4.82;3.05;;;-3.20;94.40;;;;;;5022665;28;20018;-84
2023/03/10 02:30:30;;;;;;;4.13;2.65;;;-3.20;94.50;;;;;;5017774;28;20026;-84
2023/03/10 02:33:00;;;;;;;6.17;2.97;;;-3.20;94.40;;;;;;5029053;28;20022;-83
2023/03/10 02:35:27;;;;;;;3.92;3.28;;;-3.20;94.60;;;;;;5013832;28;20022;-84
2023/03/10 02:37:52;;;;;;;4.10;3.03;;;-3.20;94.60;;;;;;5012246;28;20037;-82
2023/03/10 02:40:45;;;;;;;7.00;3.75;;;-3.20;94.90;;;;;;5014725;28;20467;-84
2023/03/10 02:43:27;;;;;;;4.53;3.17;;;-3.20;94.80;;;;;;5014706;28;20105;-83
2023/03/10 02:46:00;;;;;;;3.95;2.90;;;-3.30;93.90;;;;;;5019251;28;20065;-84
2023/03/10 02:48:33;;;;;;;4.10;2.67;;;-3.30;93.40;;;;;;5027273;28;20037;-84
2023/03/10 02:51:01;;;;;;;4.18;3.30;;;-3.40;93.60;;;;;;5028822;28;20021;-84
2023/03/10 02:53:28;;;;;;;4.45;3.63;;;-3.40;93.80;;;;;;5023432;28;20049;-85
2023/03/10 02:55:55;;;;;;;3.03;2.63;;;-3.40;93.90;;;;;;5032669;28;20034;-84
2023/03/10 02:58:22;;;;;;;4.30;2.97;;;-3.40;93.20;;;;;;5016154;28;20041;-84
2023/03/10 03:00:49;;;;;;;5.72;3.22;;;-3.50;93.00;;;;;;5016557;28;20049;-85
2023/03/10 03:03:20;;;;;;;3.25;2.22;;;-3.50;92.60;;;;;;5015134;28;20030;-84
2023/03/10 03:05:48;;;;;;;4.75;3.50;;;-3.60;92.70;;;;;;5013848;28;20113;-85
2023/03/10 03:08:15;;;;;;;3.97;2.70;;;-3.60;92.30;;;;;;5029527;28;20060;-86
2023/03/10 03:10:42;;;;;;;3.30;2.65;;;-3.60;92.10;;;;;;5031345;28;20099;-85
2023/03/10 03:13:08;;;;;;;3.42;2.30;;;-3.70;91.90;;;;;;5027872;28;20062;-87
2023/03/10 03:15:42;;;;;;;4.50;2.85;;;-3.80;92.00;;;;;;5031706;28;20475;-84
2023/03/10 03:18:09;;;;;;;4.10;2.33;;;-3.80;92.30;;;;;;5015411;28;20022;-86
2023/03/10 03:20:37;;;;;;;5.32;2.88;;;-3.90;92.20;;;;;;5024448;28;20030;-85
2023/03/10 03:23:03;;;;;;;3.60;2.78;;;-3.80;92.20;;;;;;5030917;28;20064;-84
2023/03/10 03:25:29;;;;;;;5.68;3.13;;;-3.90;92.50;;;;;;5028947;28;20034;-86
2023/03/10 03:27:56;;;;;;;4.03;2.80;;;-3.90;92.80;;;;;;5003496;28;20029;-84
2023/03/10 03:30:24;;;;;;;3.63;2.72;;;-3.90;92.40;;;;;;5027918;28;20271;-84
2023/03/10 03:32:51;;;;;;;2.38;1.92;;;-3.90;92.30;;;;;;5018385;28;20056;-84
2023/03/10 03:35:22;;;;;;;4.55;2.95;;;-4.00;92.20;;;;;;5018743;28;20026;-82
2023/03/10 03:37:50;;;;;;;3.28;2.28;;;-4.00;92.70;;;;;;5021875;28;20523;-82
2023/03/10 03:40:16;;;;;;;6.28;3.30;;;-4.10;93.00;;;;;;5018658;28;20068;-82
2023/03/10 03:42:44;;;;;;;3.83;2.72;;;-4.10;93.20;;;;;;5034730;28;20026;-83
2023/03/10 03:45:11;;;;;;;4.13;2.83;;;-4.00;93.00;;;;;;5016496;28;20075;-84
2023/03/10 03:47:37;;;;;;;4.82;4.15;;;-4.00;93.30;;;;;;5016461;28;20025;-82
2023/03/10 03:50:04;;;;;;;4.03;2.50;;;-3.90;93.00;;;;;;5016368;28;20038;-82
2023/03/10 03:52:31;;;;;;;;;;;-4.00;93.00;;;;;;5035128;28;20048;-82
2023/03/10 03:54:57;;;;;;;6.05;2.88;;;-4.00;93.40;;;;;;5015134;28;19906;-82
2023/03/10 03:57:23;;;;;;;4.28;2.90;;;-4.00;93.00;;;;;;5026387;28;20022;-84
2023/03/10 03:59:49;;;;;;;6.22;3.25;;;-4.00;92.80;;;;;;5009059;28;20100;-84
2023/03/10 04:02:15;;;;;;;5.85;3.10;;;-4.00;92.90;;;;;;5013716;28;20029;-84
2023/03/10 04:04:41;;;;;;;5.35;3.30;;;-3.90;93.20;;;;;;5013758;28;20060;-83
2023/03/10 04:07:07;;;;;;;5.13;3.03;;;-3.90;93.40;;;;;;5020966;28;20108;-83
2023/03/10 04:09:33;;;;;;;5.72;3.30;;;-3.90;93.30;;;;;;5017064;28;20073;-83
2023/03/10 04:11:58;;;;;;;4.60;2.50;;;-3.90;92.90;;;;;;5015191;28;20029;-82
2023/03/10 04:14:24;;;;;;;7.18;3.90;;;-4.00;92.60;;;;;;5013855;28;20036;-84
2023/03/10 04:16:50;;;;;;;7.18;3.95;;;-4.10;92.50;;;;;;5015748;28;20033;-84
2023/03/10 04:19:16;;;;;;;4.85;3.65;;;-4.10;92.50;;;;;;5031274;28;20034;-84
2023/03/10 04:21:42;;;;;;;4.03;2.80;;;-4.10;92.60;;;;;;5016587;28;20442;-83
2023/03/10 04:24:08;;;;;;;4.70;3.30;;;-4.10;92.90;;;;;;5014625;28;20431;-83
2023/03/10 04:26:34;;;;;;;6.70;3.58;;;-4.10;92.80;;;;;;5016514;28;20022;-82
2023/03/10 04:29:00;;;;;;;5.60;3.80;;;-4.10;93.10;;;;;;5025572;28;20387;-84
2023/03/10 04:31:26;;;;;;;4.72;3.45;;;-4.00;93.10;;;;;;5031412;28;20025;-83
2023/03/10 04:33:52;;;;;;;4.88;3.10;;;-4.00;92.80;;;;;;5015966;28;20029;-85
2023/03/10 04:36:19;;;;;;;3.53;2.67;;;-4.10;92.30;;;;;;5017777;28;20080;-86
2023/03/10 04:38:45;;;;;;;4.97;2.92;;;-4.20;92.20;;;;;;5016150;28;20065;-85
2023/03/10 04:41:11;;;;;;;5.18;2.80;;;-4.30;92.10;;;;;;5017424;28;20025;-86
2023/03/10 04:43:37;;;;;;;3.70;3.40;;;-4.30;92.50;;;;;;5011059;28;20068;-86
2023/03/10 04:46:04;;;;;;;4.43;2.83;;;-4.40;92.20;;;;;;5010367;28;20090;-84
2023/03/10 04:48:30;;;;;;;3.10;2.70;;;-4.40;92.40;;;;;;5016903;28;20084;-85
2023/03/10 04:50:58;;;;;;;5.55;4.22;;;-4.40;93.00;;;;;;5013449;28;20030;-85
2023/03/10 04:53:24;;;;;;;6.95;3.65;;;-4.40;93.30;;;;;;5012467;28;20096;-86
2023/03/10 04:55:50;;;;;;;5.20;3.90;;;-4.30;93.50;;;;;;5007907;28;20033;-85
2023/03/10 04:58:17;;;;;;;5.55;3.17;;;-4.30;93.00;;;;;;5012724;28;20054;-86
2023/03/10 05:00:43;;;;;;;4.13;2.95;;;-4.30;93.00;;;;;;5018630;28;20030;-83
2023/03/10 05:03:09;;;;;;;5.65;4.30;;;-4.30;92.90;;;;;;5014309;28;20375;-85
2023/03/10 05:05:36;;;;;;;5.13;3.55;;;-4.40;93.00;;;;;;5013430;28;20021;-86
2023/03/10 05:08:02;;;;;;;3.75;3.00;;;-4.40;93.00;;;;;;5014000;28;20117;-84
2023/03/10 05:10:28;;;;;;;7.07;3.22;;;-4.40;93.00;;;;;;5029752;28;20034;-87
2023/03/10 05:12:54;;;;;;;8.38;3.97;;;-4.40;93.10;;;;;;5024172;28;20392;-89
2023/03/10 05:15:20;;;;;;;8.48;4.80;;;-4.30;93.20;;;;;;5018658;28;20021;-86
2023/03/10 05:17:46;;;;;;;5.25;3.35;;;-4.30;93.30;;;;;;5030541;28;20033;-86
2023/03/10 05:20:14;;;;;;;5.45;4.70;;;-4.40;93.40;;;;;;5016045;28;20053;-87
2023/03/10 05:22:41;;;;;;;8.02;4.95;;;-4.40;93.30;;;;;;5017394;28;20037;-87
2023/03/10 05:25:07;;;;;;;4.13;3.63;;;-4.50;92.90;;;;;;5014957;28;20034;-88
2023/03/10 05:27:34;;;;;;;5.05;3.72;;;-4.50;93.10;;;;;;5021782;28;20026;-86
2023/03/10 05:30:01;;;;;;;4.82;3.80;;;-4.70;93.20;;;;;;5019994;28;20026;-85
2023/03/10 05:32:27;;;;;;;10.68;5.38;;;-4.70;93.40;;;;;;5015633;28;20124;-84
2023/03/10 05:34:54;;;;;;;6.95;4.75;;;-4.70;93.70;;;;;;5027637;28;20053;-85
2023/03/10 05:37:20;;;;;;;10.20;4.93;;;-4.60;93.80;;;;;;5014248;28;20032;-86
2023/03/10 05:39:45;;;;;;;7.57;4.63;;;-4.50;94.00;;;;;;5012724;28;20390;-86
2023/03/10 05:42:11;;;;;;;9.25;4.63;;;-4.50;94.00;;;;;;5001157;28;20025;-87
2023/03/10 05:44:38;;;;;;;8.95;5.15;;;-4.40;93.80;;;;;;5015254;28;20030;-85
2023/03/10 05:47:04;;;;;;;6.00;4.18;;;-4.40;93.80;;;;;;5015076;28;20025;-85
2023/03/10 05:49:31;;;;;;;6.93;4.93;;;-4.20;94.00;;;;;;5016393;28;20030;-87
2023/03/10 05:51:57;;;;;;;7.03;5.15;;;-4.20;94.10;;;;;;5016672;28;20014;-84
2023/03/10 05:54:23;;;;;;;5.63;4.17;;;-4.20;93.70;;;;;;5019822;28;20105;-86
2023/03/10 05:56:50;;;;;;;7.63;4.15;;;-4.20;93.60;;;;;;5015059;28;20501;-88
2023/03/10 05:59:16;;;;;;;6.55;4.05;;;-4.30;92.90;;;;;;5014585;28;20053;-86
2023/03/10 06:01:45;;;;;;;6.85;4.10;;;-4.40;92.40;;;;;;5017826;28;20041;-84
2023/03/10 06:04:11;;;;;;;;;;;-4.50;92.50;;;;;;5021875;28;20404;-84
2023/03/10 06:06:37;;;;;;;8.10;4.43;;;-4.50;92.80;;;;;;5016906;28;19909;-85
2023/03/10 06:09:03;;;;;;;9.93;4.68;;;-4.50;92.70;;;;;;5035617;28;20044;-84
2023/03/10 06:11:29;;;;;;;6.60;5.07;;;-4.40;92.90;;;;;;5018773;28;20047;-85
2023/03/10 06:13:55;;;;;;;7.45;4.90;;;-4.20;93.10;;;;;;5017924;28;20030;-84
2023/03/10 06:16:21;;;;;;;9.55;6.00;;;-4.00;92.50;;;;;;5011831;28;20093;-85
2023/03/10 06:18:51;;;;;;;7.70;4.82;;;-3.90;91.90;;;;;;5030399;28;20053;-84
2023/03/10 06:21:17;;;;;;;5.85;4.20;;;-3.90;92.10;;;;;;5035891;28;20054;-83
2023/03/10 06:23:43;;;;;;;8.00;4.85;;;-3.80;92.50;;;;;;5019909;28;20037;-83
2023/03/10 06:26:12;;;;;;;5.57;4.88;;;-3.70;92.20;;;;;;5021590;28;20471;-84
2023/03/10 06:28:40;;;;;;;5.68;4.30;;;-3.70;91.70;;;;;;5027610;28;20030;-83
2023/03/10 06:31:11;;;;;;;8.50;4.60;;;-3.70;91.90;;;;;;5020793;28;20030;-85
2023/03/10 06:33:37;;;;;;;5.78;4.85;;;-3.90;91.10;;;;;;5016066;28;20430;-86
2023/03/10 06:36:04;;;;;;;6.45;4.32;;;-4.00;91.30;;;;;;5016666;28;20117;-85
2023/03/10 06:38:30;;;;;;;9.03;4.23;;;-3.90;91.70;;;;;;5023460;28;20030;-85
2023/03/10 06:40:57;;;;;;;6.03;4.07;;;-3.90;92.20;;;;;;5024003;28;20271;-88
2023/03/10 06:43:23;;;;;;;10.03;5.90;;;-3.90;91.60;;;;;;5009050;28;20025;-87
2023/03/10 06:45:49;;;;;;;7.30;5.38;;;-3.90;91.70;;;;;;5011554;28;20263;-88
2023/03/10 06:48:16;;;;;;;9.63;5.13;;;-3.80;92.10;;;;;;5032947;28;20526;-88
2023/03/10 06:50:43;;;;;;;8.70;5.72;;;-3.80;91.40;;;;;;5042524;28;20029;-87
2023/03/10 06:53:10;;;;;;;6.88;5.72;;;-3.80;91.40;;;;;;5040445;28;20018;-87
2023/03/10 06:55:37;;;;;;;10.57;6.40;;;-3.80;91.60;;;;;;5025951;28;20103;-87
2023/03/10 06:58:03;;;;;;;6.75;5.53;;;-3.70;91.40;;;;;;5030523;28;20407;-87
2023/03/10 07:00:29;;;;;;;9.05;6.13;;;-3.60;91.60;;;;;;5022230;28;20112;-81
2023/03/10 07:02:55;;;;;;;10.85;5.20;;;-3.40;91.90;;;;;;5026392;28;20036;-83
2023/03/10 07:05:22;;;;;;;6.65;4.90;;;-3.30;91.80;;;;;;5033979;28;20030;-82
2023/03/10 07:07:51;;;;;;;7.03;4.55;;;-3.30;91.50;;;;;;5026620;28;20072;-82
2023/03/10 07:10:18;;;;;;;8.82;4.95;;;-3.40;91.30;;;;;;5028239;28;20041;-84
2023/03/10 07:12:44;;;;;;;7.88;5.55;;;-3.50;90.90;;;;;;5034127;28;20025;-87
2023/03/10 07:15:11;;;;;;;8.07;4.37;;;-3.70;90.20;;;;;;5034799;28;20026;-87
2023/03/10 07:17:37;;;;;;;7.03;4.45;;;-3.90;90.60;;;;;;5035619;28;20030;-85
2023/03/10 07:20:03;;;;;;;5.32;4.38;;;-4.00;90.90;;;;;;5034366;28;20060;-86
2023/03/10 07:22:29;;;;;;;6.63;4.50;;;-4.00;91.20;;;;;;5035679;28;20356;-86
2023/03/10 07:24:55;;;;;;;6.93;5.03;;;-4.00;91.20;;;;;;5027384;28;20473;-84
2023/03/10 07:27:22;;;;;;;6.57;4.82;;;-3.90;91.40;;;;;;5016375;28;20022;-84
2023/03/10 07:29:48;;;;;;;10.97;4.93;;;-3.80;90.80;;;;;;5016283;28;20496;-88
2023/03/10 07:32:15;;;;;;;10.43;5.40;;;-3.80;90.30;;;;;;5016866;28;20299;-88
2023/03/10 07:34:41;;;;;;;;;;;-3.80;90.10;;;;;;5024108;28;20025;-90
2023/03/10 07:37:09;;;;;;;6.18;5.15;;;-3.80;90.30;;;;;;5004020;28;20318;-88
2023/03/10 07:39:35;;;;;;;5.15;4.50;;;-3.70;90.40;;;;;;5031937;28;20030;-89
2023/03/10 07:42:01;;;;;;;7.65;4.93;;;-3.20;89.90;;;;;;5029870;28;20026;-92
2023/03/10 07:44:28;;;;;;;6.50;5.68;;;-2.90;89.60;;;;;;5032904;28;20030;-89
2023/03/10 07:46:54;;;;;;;9.30;6.22;;;-2.60;88.30;;;;;;5040085;28;20009;-89
2023/03/10 07:49:20;;;;;;;7.72;5.38;;;-2.10;89.30;;;;;;5057171;28;20104;-90
2023/03/10 07:51:47;;;;;;;7.55;5.28;;;-2.10;84.20;;;;;;5053432;28;20018;-88
2023/03/10 07:54:13;;;;;;;9.98;4.95;;;-2.50;84.80;;;;;;5047366;28;20034;-90
2023/03/10 07:56:39;;;;;;;10.48;6.05;;;-2.70;87.20;;;;;;5039591;28;20037;-88
2023/03/10 07:59:05;;;;;;;9.18;5.07;;;-2.70;85.40;;;;;;5045703;28;20125;-90
2023/03/10 08:01:31;;;;;;;10.45;7.22;;;-2.60;85.50;;;;;;5025805;28;20025;-87
2023/03/10 08:03:57;;;;;;;7.18;5.25;;;-2.80;85.30;;;;;;5036066;28;20045;-89
2023/03/10 08:06:27;;;;;;;8.02;5.72;;;-3.00;84.70;;;;;;5031157;28;20117;-88
2023/03/10 08:08:54;;;;;;;5.28;4.07;;;-3.20;85.30;;;;;;5034728;28;20021;-86
2023/03/10 08:11:21;;;;;;;8.25;5.30;;;-3.10;85.80;;;;;;5037286;28;20045;-88
2023/03/10 08:13:49;;;;;;;7.32;4.22;;;-3.10;85.30;;;;;;5024482;28;20030;-91
2023/03/10 08:16:17;;;;;;;5.80;3.72;;;-3.20;83.80;;;;;;5032406;28;20313;-87
2023/03/10 08:18:43;;;;;;;7.20;4.85;;;-3.40;84.90;;;;;;5023093;28;20129;-91
2023/03/10 08:21:10;;;;;;;9.45;4.35;;;-3.10;85.50;;;;;;5022281;28;20026;-91
2023/03/10 08:23:37;;;;;;;7.85;4.60;;;-1.80;89.40;;;;;;5024486;28;20033;-90
2023/03/10 08:26:06;;;;;;;5.95;4.22;;;-1.00;83.40;;;;;;5032217;28;20033;-88
2023/03/10 08:28:34;;;;;;;9.07;4.60;;;-0.40;81.00;;;;;;5049386;28;20033;-91
2023/03/10 08:31:08;;;;;;;6.15;4.95;;;-0.50;77.80;;;;;;5041870;28;20057;-91
2023/03/10 08:33:34;;;;;;;6.80;4.72;;;-1.10;75.70;;;;;;5038560;28;20029;-89
2023/03/10 08:36:11;;;;;;;6.32;4.57;;;-1.70;76.70;;;;;;5028344;28;20068;-86
2023/03/10 08:38:37;;;;;;;8.75;4.78;;;-2.20;77.10;;;;;;5005111;28;20029;-85
2023/03/10 08:41:20;;;;;;;6.78;5.22;;;-2.60;78.60;;;;;;5018736;28;20037;-85
2023/03/10 08:43:47;;;;;;;5.53;3.65;;;-2.70;79.80;;;;;;5013501;28;20018;-86
2023/03/10 08:46:13;;;;;;;5.65;4.45;;;-2.80;80.60;;;;;;5013118;28;20033;-89
2023/03/10 08:48:40;;;;;;;5.50;4.50;;;-2.90;81.80;;;;;;5022198;28;20038;-89
2023/03/10 08:51:06;;;;;;;6.90;4.00;;;-2.80;82.70;;;;;;5020470;28;20030;-89
2023/03/10 08:53:35;;;;;;;8.63;4.17;;;-2.70;81.40;;;;;;5032450;28;20017;-90
2023/03/10 08:56:01;;;;;;;6.50;4.18;;;-2.70;81.00;;;;;;5034715;28;20289;-90
2023/03/10 08:58:28;;;;;;;5.18;3.35;;;-2.80;80.50;;;;;;5027200;28;20042;-89
2023/03/10 09:00:54;;;;;;;4.90;3.60;;;-2.90;80.60;;;;;;5050706;28;20033;-87
2023/03/10 09:03:20;;;;;;;5.30;3.85;;;-2.80;82.60;;;;;;5029332;28;20307;-87
2023/03/10 09:05:47;;;;;;;6.60;3.47;;;-2.70;82.00;;;;;;5037114;28;20014;-87
2023/03/10 09:08:13;;;;;;;4.70;3.03;;;-2.70;82.70;;;;;;5021629;28;20024;-85
2023/03/10 09:10:41;;;;;;;6.10;4.03;;;-2.80;81.60;;;;;;5023540;28;20014;-87
2023/03/10 09:13:08;;;;;;;5.38;3.78;;;-2.80;80.80;;;;;;5018132;28;20033;-88
2023/03/10 09:15:34;;;;;;;7.03;3.78;;;-3.00;79.90;;;;;;5019543;28;20026;-86
2023/03/10 09:18:01;;;;;;;6.85;5.03;;;-3.10;81.40;;;;;;5020766;28;20523;-87
2023/03/10 09:20:27;;;;;;;6.43;4.35;;;-3.00;82.70;;;;;;5021314;28;20034;-87
2023/03/10 09:22:54;;;;;;;5.22;4.15;;;-3.10;82.30;;;;;;5021472;28;20078;-86
2023/03/10 09:25:21;;;;;;;3.95;3.15;;;-2.90;83.60;;;;;;5016979;28;20040;-87
2023/03/10 09:27:47;;;;;;;5.07;3.45;;;-2.90;81.50;;;;;;5018263;28;20052;-87
2023/03/10 09:30:13;;;;;;;5.78;3.88;;;-3.00;80.80;;;;;;5019311;28;20403;-88
2023/03/10 09:32:40;;;;;;;2.70;2.50;;;-3.00;81.20;;;;;;5019360;28;20075;-89
2023/03/10 09:35:06;;;;;;;8.68;4.30;;;-2.90;81.20;;;;;;5017368;28;20022;-89
2023/03/10 09:37:32;;;;;;;5.32;3.97;;;-2.60;82.90;;;;;;5035610;28;20049;-91
2023/03/10 09:39:58;;;;;;;7.53;4.22;;;-2.40;80.20;;;;;;5028109;28;20510;-90
2023/03/10 09:42:27;;;;;;;6.10;3.60;;;-2.40;79.30;;;;;;5022505;28;20081;-92
2023/03/10 09:45:52;;;;;;;4.53;3.78;;;-2.40;81.00;;;;;;5025773;28;20025;-90
2023/03/10 09:48:50;;;;;;;6.43;3.53;;;-2.20;82.20;;;;;;4904934;29;20103;-91
2023/03/10 09:51:22;;;;;;;4.57;3.90;;;-2.10;80.70;;;;;;4909692;29;20037;-91
2023/03/10 09:54:17;;;;;;;6.15;3.65;;;-2.30;79.70;;;;;;4913725;29;20032;-89
2023/03/10 09:56:44;;;;;;;8.10;5.35;;;-2.40;80.50;;;;;;4918972;29;20055;-89
2023/03/10 09:59:35;;;;;;;6.28;4.65;;;-2.50;80.40;;;;;;4877946;29;20049;-85
2023/03/10 10:02:14;;;;;;;6.38;4.13;;;-2.60;81.40;;;;;;4894270;29;20091;-89
2023/03/10 10:04:42;;;;;;;4.68;3.83;;;-2.70;82.00;;;;;;4875911;29;20025;-89
2023/03/10 10:07:14;;;;;;;;;;;-2.60;81.50;;;;;;4899277;29;20059;-89
2023/03/10 10:10:15;;;;;;;6.53;4.05;;;-2.70;82.10;;;;;;4891451;29;19911;-90
2023/03/10 10:12:43;;;;;;;4.15;3.65;;;-2.70;82.30;;;;;;4871893;29;20087;-91
2023/03/10 10:15:20;;;;;;;5.05;3.97;;;-2.70;83.00;;;;;;4879622;29;20093;-89
2023/03/10 10:17:51;;;;;;;5.28;3.97;;;-2.70;82.40;;;;;;4886503;29;20032;-88
2023/03/10 10:20:41;;;;;;;5.47;4.05;;;-2.70;83.00;;;;;;4893645;29;20044;-83
2023/03/10 10:23:18;;;;;;;5.80;3.58;;;-2.80;81.30;;;;;;4902721;29;20024;-83
2023/03/10 10:25:44;;;;;;;;;;;-2.90;82.70;;;;;;4934204;28;20039;-86
2023/03/10 10:28:24;;;;;;;7.93;3.90;;;-2.90;82.80;;;;;;4949981;28;20284;-86
2023/03/10 10:30:50;;;;;;;5.57;4.13;;;-2.90;82.50;;;;;;4956799;28;20063;-84
2023/03/10 10:33:16;;;;;;;5.43;3.80;;;-2.80;83.00;;;;;;4982139;28;20033;-86
2023/03/10 10:36:00;;;;;;;9.18;6.53;;;-2.80;83.20;;;;;;5021074;28;20494;-84
2023/03/10 10:38:29;;;;;;;5.13;4.28;;;-2.90;83.30;;;;;;5020858;28;20180;-85
2023/03/10 10:41:15;;;;;;;6.60;3.88;;;-2.90;84.40;;;;;;5024180;28;20037;-88
2023/03/10 10:43:43;;;;;;;4.78;3.13;;;-2.80;84.40;;;;;;5037007;28;20036;-87
2023/03/10 10:46:10;;;;;;;5.45;3.97;;;-2.70;83.70;;;;;;5041824;28;20041;-86
2023/03/10 10:48:36;;;;;;;6.95;3.95;;;-2.80;82.80;;;;;;5042104;28;20017;-84
2023/03/10 10:51:04;;;;;;;5.55;3.70;;;-2.80;83.40;;;;;;5037355;28;20026;-88
2023/03/10 10:53:34;;;;;;;5.88;3.92;;;-2.70;83.40;;;;;;5041066;28;20037;-89
2023/03/10 10:56:05;;;;;;;5.22;4.28;;;-2.70;83.50;;;;;;5040225;28;20097;-90
2023/03/10 10:58:34;;;;;;;5.95;3.92;;;-2.70;83.20;;;;;;5052647;28;20037;-90
2023/03/10 11:01:04;;;;;;;7.80;4.85;;;-2.60;84.10;;;;;;5037216;28;20052;-90
2023/03/10 11:03:36;;;;;;;5.32;3.55;;;-2.50;83.60;;;;;;5025862;28;20145;-91
2023/03/10 11:06:18;;;;;;;9.70;6.15;;;-2.50;83.20;;;;;;5033410;28;20053;-92
2023/03/10 11:08:51;;;;;;;4.70;3.08;;;-2.60;82.90;;;;;;5028483;28;20080;-90
2023/03/10 11:11:24;;;;;;;5.18;3.97;;;-2.70;84.20;;;;;;5027620;28;20045;-91
2023/03/10 11:14:32;;;;;;;7.30;3.90;;;-2.70;83.20;;;;;;5036266;28;20030;-90
2023/03/10 11:17:21;;;;;;;7.05;4.22;;;-2.80;83.40;;;;;;4993541;28;20032;-86
2023/03/10 11:19:59;;;;;;;4.93;3.88;;;-2.80;83.90;;;;;;5003576;28;20085;-90
2023/03/10 11:22:34;;;;;;;4.90;3.60;;;-2.80;83.80;;;;;;5029296;28;20010;-90
2023/03/10 11:25:21;;;;;;;6.07;4.05;;;-2.90;83.90;;;;;;5031698;28;20110;-91
2023/03/10 11:28:02;;;;;;;4.82;3.25;;;-2.90;85.20;;;;;;5017194;28;20019;-88
2023/03/10 11:30:44;;;;;;;8.10;4.68;;;-2.90;84.10;;;;;;4996761;28;20057;-87
2023/03/10 11:33:28;;;;;;;4.70;3.45;;;-2.80;84.80;;;;;;4997113;28;20049;-89
2023/03/10 11:36:49;;;;;;;7.07;4.13;;;-2.80;84.90;;;;;;5009865;28;20094;-89
2023/03/10 11:39:53;;;;;;;6.85;4.20;;;-2.80;84.50;;;;;;5002616;28;20041;-88
2023/03/10 11:42:41;;;;;;;4.60;3.90;;;-2.70;84.00;;;;;;5007462;28;20083;-90
2023/03/10 11:45:27;;;;;;;5.85;3.90;;;-2.80;83.60;;;;;;5006405;28;20030;-88
2023/03/10 11:48:18;;;;;;;6.32;4.47;;;-2.80;83.50;;;;;;4990012;28;20026;-89
2023/03/10 11:50:55;;;;;;;4.47;4.00;;;-2.70;83.20;;;;;;5009357;28;20069;-89
2023/03/10 11:53:49;;;;;;;7.22;4.15;;;-2.70;84.10;;;;;;5022209;28;20026;-88
2023/03/10 11:56:18;;;;;;;6.38;4.22;;;-2.70;84.30;;;;;;5031825;28;20049;-87
2023/03/10 11:59:04;;;;;;;6.60;3.17;;;-2.70;84.50;;;;;;5041957;28;20041;-87
2023/03/10 12:01:47;;;;;;;5.97;4.32;;;-2.60;83.50;;;;;;5031321;28;20026;-87
2023/03/10 12:04:34;;;;;;;8.05;4.35;;;-2.70;83.40;;;;;;5021431;28;20022;-86
2023/03/10 12:07:21;;;;;;;5.22;4.32;;;-2.70;83.70;;;;;;5020148;28;20029;-87
2023/03/10 12:10:12;;;;;;;5.13;4.10;;;-2.50;83.20;;;;;;5030933;28;20025;-90
2023/03/10 12:12:45;;;;;;;6.10;4.53;;;-2.70;82.10;;;;;;5018219;28;20025;-89
2023/03/10 12:15:18;;;;;;;4.57;3.08;;;-2.70;83.00;;;;;;5019595;28;20551;-88
2023/03/10 12:17:44;;;;;;;5.55;4.15;;;-2.70;83.90;;;;;;5013368;28;20112;-86
2023/03/10 12:20:14;;;;;;;7.30;4.38;;;-2.60;84.00;;;;;;5030327;28;20503;-88
2023/03/10 12:22:51;;;;;;;6.20;4.15;;;-2.50;83.60;;;;;;5017667;28;20395;-89
2023/03/10 12:25:31;;;;;;;5.78;3.55;;;-2.40;83.20;;;;;;5034164;28;20168;-88
2023/03/10 12:28:18;;;;;;;6.57;3.63;;;-2.40;82.30;;;;;;5035364;28;20030;-88
2023/03/10 12:31:09;;;;;;;6.30;3.38;;;-2.30;81.00;;;;;;5033244;28;20040;-89
2023/03/10 12:33:44;;;;;;;3.92;3.03;;;-2.30;81.70;;;;;;5044903;28;20022;-91
2023/03/10 12:36:28;;;;;;;6.53;4.10;;;-2.30;81.90;;;;;;5027049;28;20073;-91
2023/03/10 12:38:59;;;;;;;5.20;4.03;;;-2.30;81.00;;;;;;5020423;28;20052;-88
2023/03/10 12:41:28;;;;;;;6.63;3.55;;;-2.30;80.60;;;;;;5047115;28;20030;-86
2023/03/10 12:44:00;;;;;;;4.65;3.65;;;-2.20;81.60;;;;;;5039442;28;20025;-86
2023/03/10 12:46:47;;;;;;;5.32;3.22;;;-2.10;79.30;;;;;;5031776;28;20033;-87
2023/03/10 12:49:34;;;;;;;3.58;3.10;;;-2.30;77.60;;;;;;5017818;28;20018;-85
2023/03/10 12:52:06;;;;;;;4.32;3.55;;;-2.40;77.20;;;;;;5030980;28;20025;-86
2023/03/10 12:54:48;;;;;;;3.60;3.25;;;-2.40;78.90;;;;;;5023599;28;20022;-85
2023/03/10 12:57:29;;;;;;;4.45;3.28;;;-2.40;78.30;;;;;;5014439;28;20022;-88
2023/03/10 13:00:05;;;;;;;5.22;3.40;;;-2.50;78.40;;;;;;5010711;28;20046;-86
2023/03/10 13:02:58;;;;;;;4.03;3.63;;;-2.70;78.10;;;;;;5011987;28;20026;-87
2023/03/10 13:05:34;;;;;;;5.00;3.20;;;-2.80;78.10;;;;;;5030287;28;20014;-90